Time;durP1;ratioP1;P1;durP2;ratioP2;P2;SDS_P1;SDS_P2;PMS_P1;PMS_P2;Temp;Humidity;BMP_temperature;BMP_pressure;BME280_temperature;BME280_humidity;BME280_pressure;Samples;Min_cycle;Max_cycle;Signal;HPM_P1;HPM_P2
2022/11/07 00:02:57;;;;;;;5.70;2.50;;;;;10.40;100286.00;;;;10446470;28;20188;-79
2022/11/07 00:07:59;;;;;;;4.20;2.47;;;;;10.50;100296.00;;;;10446674;28;20200;-78
2022/11/07 00:13:02;;;;;;;5.43;2.43;;;;;10.50;100293.00;;;;10462387;28;20205;-78
2022/11/07 00:18:03;;;;;;;6.47;2.37;;;;;10.50;100288.00;;;;10427085;28;20193;-78
2022/11/07 00:23:05;;;;;;;4.10;2.50;;;;;10.60;100295.00;;;;10478715;28;20197;-78
2022/11/07 00:28:07;;;;;;;10.10;2.77;;;;;10.60;100295.00;;;;10478414;28;20221;-79
2022/11/07 00:33:09;;;;;;;8.87;3.07;;;;;10.70;100296.00;;;;10444311;28;20243;-79
2022/11/07 00:38:11;;;;;;;11.80;3.93;;;;;10.70;100307.00;;;;10445180;28;20197;-79
2022/11/07 00:43:13;;;;;;;7.50;2.63;;;;;10.70;100309.00;;;;10444238;28;20648;-78
2022/11/07 00:48:15;;;;;;;5.70;2.60;;;;;10.60;100324.00;;;;10427857;28;20189;-79
2022/11/07 00:53:17;;;;;;;7.10;2.20;;;;;10.60;100325.00;;;;10428695;28;20245;-78
2022/11/07 00:58:19;;;;;;;9.47;2.60;;;;;10.70;100332.00;;;;10478061;28;20193;-78
2022/11/07 01:08:41;;;;;;;13.03;3.33;;;;;10.90;100331.00;;;;10436257;28;20198;-78
2022/11/07 01:13:43;;;;;;;10.20;3.37;;;;;10.90;100319.00;;;;10419602;28;20660;-79
2022/11/07 01:18:44;;;;;;;10.60;3.03;;;;;11.00;100335.00;;;;10432250;28;20186;-78
2022/11/07 01:23:46;;;;;;;7.73;3.23;;;;;11.00;100335.00;;;;10459457;28;20548;-79
2022/11/07 01:28:48;;;;;;;8.03;2.60;;;;;11.10;100334.00;;;;10443334;28;20196;-79
2022/11/07 01:33:51;;;;;;;7.13;2.30;;;;;11.20;100331.00;;;;10427279;28;20856;-79
2022/11/07 01:38:53;;;;;;;12.27;2.37;;;;;11.40;100335.00;;;;10426999;28;20197;-80
2022/11/07 01:44:15;;;;;;;9.40;2.10;;;;;11.40;100334.00;;;;10424038;28;20194;-78
2022/11/07 01:49:22;;;;;;;11.17;2.50;;;;;11.40;100336.00;;;;10394974;28;20263;-78
2022/11/07 01:54:46;;;;;;;10.13;2.00;;;;;11.40;100326.00;;;;10459011;28;20202;-79
2022/11/07 01:59:51;;;;;;;9.03;1.83;;;;;11.30;100335.00;;;;10442713;28;20204;-79
2022/11/07 02:04:59;;;;;;;6.77;2.60;;;;;11.30;100337.00;;;;10459149;28;20307;-79
2022/11/07 02:10:02;;;;;;;12.00;2.73;;;;;11.30;100337.00;;;;10481361;28;20186;-80
2022/11/07 02:15:07;;;;;;;11.73;2.10;;;;;11.20;100333.00;;;;10460014;28;20202;-79
2022/11/07 02:20:10;;;;;;;8.27;2.03;;;;;11.20;100342.00;;;;10442277;28;20236;-79
2022/11/07 02:25:14;;;;;;;7.10;1.70;;;;;11.20;100339.00;;;;10408735;28;20218;-79
2022/11/07 02:30:20;;;;;;;12.80;2.57;;;;;11.10;100353.00;;;;10441913;28;20187;-79
2022/11/07 02:35:38;;;;;;;10.17;2.43;;;;;11.10;100333.00;;;;10425196;28;20206;-80
2022/11/07 02:40:43;;;;;;;9.20;2.50;;;;;11.10;100337.00;;;;10392895;28;20200;-80
2022/11/07 02:45:47;;;;;;;9.27;2.00;;;;;11.10;100332.00;;;;10393109;28;20190;-79
2022/11/07 02:50:49;;;;;;;8.73;2.47;;;;;11.00;100343.00;;;;10392538;28;20213;-79
2022/11/07 02:55:51;;;;;;;12.70;2.90;;;;;11.10;100336.00;;;;10436869;28;20193;-79
2022/11/07 03:00:53;;;;;;;9.43;1.83;;;;;11.20;100342.00;;;;10433108;28;20643;-80
2022/11/07 03:05:55;;;;;;;10.77;2.27;;;;;11.20;100336.00;;;;10449322;28;20267;-80
2022/11/07 03:10:57;;;;;;;9.17;2.57;;;;;11.10;100349.00;;;;10432748;28;20198;-79
2022/11/07 03:16:04;;;;;;;7.70;2.00;;;;;11.00;100341.00;;;;10449309;28;20285;-80
2022/11/07 03:21:06;;;;;;;8.27;2.20;;;;;11.10;100346.00;;;;10447572;28;20212;-80
2022/11/07 03:26:08;;;;;;;11.57;2.40;;;;;11.10;100344.00;;;;10449000;28;20766;-79
2022/11/07 03:31:10;;;;;;;14.40;2.70;;;;;11.10;100348.00;;;;10406844;28;20206;-80
2022/11/07 03:36:12;;;;;;;7.63;2.33;;;;;11.10;100351.00;;;;10440855;28;20228;-79
2022/11/07 03:41:16;;;;;;;7.90;2.27;;;;;11.10;100351.00;;;;10422900;28;20289;-79
2022/11/07 03:46:18;;;;;;;7.63;1.90;;;;;11.10;100347.00;;;;10421923;28;20210;-80
2022/11/07 03:51:20;;;;;;;8.47;1.90;;;;;11.10;100352.00;;;;10427688;28;20205;-79
2022/11/07 03:56:21;;;;;;;11.37;2.53;;;;;11.10;100346.00;;;;10441536;28;20194;-80
2022/11/07 04:01:23;;;;;;;5.77;2.00;;;;;11.10;100344.00;;;;10444985;28;20900;-80
2022/11/07 04:06:25;;;;;;;8.60;2.23;;;;;11.10;100349.00;;;;10460466;28;20220;-79
2022/11/07 04:22:08;;;;;;;10.40;2.10;;;;;11.30;100355.00;;;;10462445;28;20205;-80
2022/11/07 04:32:32;;;;;;;10.23;2.27;;;;;11.50;100358.00;;;;10461994;28;20664;-80
2022/11/07 04:37:33;;;;;;;12.10;2.53;;;;;11.60;100368.00;;;;10421224;28;20715;-80
2022/11/07 04:42:36;;;;;;;7.87;2.33;;;;;11.60;100373.00;;;;10420591;28;20210;-80
2022/11/07 04:47:38;;;;;;;11.93;2.90;;;;;11.60;100377.00;;;;10388181;28;20194;-80
2022/11/07 04:52:41;;;;;;;8.90;2.50;;;;;11.60;100371.00;;;;10454622;28;20687;-80
2022/11/07 04:57:44;;;;;;;11.07;2.60;;;;;11.60;100373.00;;;;10461335;28;20801;-80
2022/11/07 05:02:47;;;;;;;13.27;2.57;;;;;11.60;100366.00;;;;10444851;28;20201;-80
2022/11/07 05:07:49;;;;;;;18.97;3.57;;;;;11.50;100380.00;;;;10405129;28;20228;-79
2022/11/07 05:12:52;;;;;;;7.70;2.13;;;;;11.30;100382.00;;;;10420093;28;20599;-79
2022/11/07 05:17:53;;;;;;;10.00;3.23;;;;;11.20;100374.00;;;;10403089;28;20190;-79
2022/11/07 05:23:11;;;;;;;10.20;3.00;;;;;11.10;100378.00;;;;10402393;28;20202;-79
2022/11/07 05:28:18;;;;;;;6.73;2.63;;;;;11.10;100372.00;;;;10386649;28;20259;-79
2022/11/07 05:33:29;;;;;;;11.07;3.10;;;;;11.10;100374.00;;;;10434263;28;20241;-79
2022/11/07 05:38:30;;;;;;;11.03;2.60;;;;;11.10;100370.00;;;;10401501;28;20248;-78
2022/11/07 05:43:33;;;;;;;8.73;2.90;;;;;11.10;100371.00;;;;10401177;28;20187;-79
2022/11/07 05:48:35;;;;;;;12.80;2.63;;;;;11.10;100385.00;;;;10429654;28;20247;-78
2022/11/07 05:53:37;;;;;;;10.97;2.07;;;;;11.20;100384.00;;;;10459263;28;20699;-78
2022/11/07 05:58:39;;;;;;;15.30;2.90;;;;;11.30;100383.00;;;;10476069;28;20231;-79
2022/11/07 06:03:41;;;;;;;11.07;3.03;;;;;11.40;100389.00;;;;10437064;28;20224;-79
2022/11/07 06:08:42;;;;;;;11.80;2.23;;;;;11.40;100393.00;;;;10417672;28;20229;-78
2022/11/07 06:13:44;;;;;;;9.67;2.53;;;;;11.40;100402.00;;;;10401898;28;20231;-78
2022/11/07 06:18:46;;;;;;;9.77;2.67;;;;;11.40;100408.00;;;;10437245;28;20212;-79
2022/11/07 06:23:48;;;;;;;7.37;2.60;;;;;11.40;100410.00;;;;10458653;28;20418;-78
2022/11/07 06:28:50;;;;;;;11.13;3.20;;;;;11.40;100410.00;;;;10416870;28;20234;-78
2022/11/07 06:33:51;;;;;;;6.83;2.07;;;;;11.40;100415.00;;;;10426060;28;20214;-78
2022/11/07 06:38:54;;;;;;;11.47;2.63;;;;;11.40;100417.00;;;;10459059;28;20650;-76
2022/11/07 06:43:56;;;;;;;10.00;2.53;;;;;11.40;100423.00;;;;10492578;28;20181;-78
2022/11/07 06:48:58;;;;;;;12.83;2.53;;;;;11.40;100430.00;;;;10458166;28;20837;-77
2022/11/07 06:53:59;;;;;;;5.83;1.70;;;;;11.40;100431.00;;;;10459640;28;20209;-76
2022/11/07 06:59:01;;;;;;;8.73;2.27;;;;;11.40;100430.00;;;;10465329;28;20209;-77
2022/11/07 07:04:04;;;;;;;11.77;2.83;;;;;11.40;100433.00;;;;10445194;28;20686;-77
2022/11/07 07:09:06;;;;;;;7.53;2.00;;;;;11.50;100448.00;;;;10451282;28;20679;-77
2022/11/07 07:14:08;;;;;;;17.33;2.67;;;;;11.50;100448.00;;;;10453043;28;20203;-77
2022/11/07 07:19:12;;;;;;;4.90;2.50;;;;;11.50;100452.00;;;;10446036;28;20190;-77
2022/11/07 07:24:14;;;;;;;13.77;3.70;;;;;11.50;100446.00;;;;10453180;28;20196;-77
2022/11/07 07:29:16;;;;;;;10.70;2.60;;;;;11.60;100458.00;;;;10459944;28;20198;-77
2022/11/07 07:34:18;;;;;;;15.13;3.20;;;;;11.70;100449.00;;;;10453968;28;20237;-77
2022/11/07 07:39:20;;;;;;;11.73;2.60;;;;;11.80;100449.00;;;;10472466;28;20201;-77
2022/11/07 07:44:22;;;;;;;10.20;3.10;;;;;11.90;100456.00;;;;10423036;28;20187;-78
2022/11/07 07:49:23;;;;;;;11.80;2.53;;;;;11.90;100462.00;;;;10414807;28;20201;-78
2022/11/07 07:54:25;;;;;;;8.63;2.83;;;;;12.00;100464.00;;;;10430002;28;20206;-78
2022/11/07 07:59:27;;;;;;;8.53;2.33;;;;;12.10;100456.00;;;;10438691;28;20182;-78
2022/11/07 08:04:29;;;;;;;15.63;3.30;;;;;12.20;100472.00;;;;10439792;28;20213;-78
2022/11/07 08:09:35;;;;;;;11.20;2.83;;;;;12.30;100480.00;;;;10383444;28;20214;-78
2022/11/07 08:14:37;;;;;;;12.07;3.13;;;;;12.50;100477.00;;;;10426759;28;20319;-79
2022/11/07 08:19:39;;;;;;;8.90;3.10;;;;;12.70;100478.00;;;;10409558;28;20210;-78
2022/11/07 08:24:42;;;;;;;14.17;3.23;;;;;12.90;100486.00;;;;10418809;28;20205;-79
2022/11/07 08:29:44;;;;;;;14.23;2.87;;;;;13.10;100491.00;;;;10462089;28;20226;-79
2022/11/07 08:34:46;;;;;;;14.13;2.40;;;;;13.30;100489.00;;;;10430908;28;20312;-79
2022/11/07 08:39:48;;;;;;;14.60;2.70;;;;;13.30;100490.00;;;;10433687;28;20190;-79
2022/11/07 08:44:50;;;;;;;12.90;2.60;;;;;13.50;100498.00;;;;10448796;28;20196;-79
2022/11/07 08:49:53;;;;;;;9.13;2.00;;;;;13.70;100485.00;;;;10424734;28;20200;-80
2022/11/07 08:54:55;;;;;;;11.68;2.53;;;;;13.80;100498.00;;;;10430451;28;20285;-80
2022/11/07 08:59:57;;;;;;;19.10;2.93;;;;;13.90;100496.00;;;;10439407;28;20212;-79
2022/11/07 09:04:59;;;;;;;9.60;2.40;;;;;13.90;100491.00;;;;10433271;28;20213;-80
2022/11/07 09:10:02;;;;;;;8.83;1.90;;;;;13.90;100498.00;;;;10429472;28;20193;-80
2022/11/07 09:15:05;;;;;;;10.73;2.77;;;;;14.20;100501.00;;;;10444796;28;20718;-80
2022/11/07 09:20:08;;;;;;;9.00;2.33;;;;;14.40;100503.00;;;;10472452;28;20192;-80
2022/11/07 09:25:11;;;;;;;17.00;3.03;;;;;14.30;100502.00;;;;10437316;28;20266;-80
2022/11/07 09:30:13;;;;;;;9.60;2.20;;;;;14.50;100508.00;;;;10412215;28;20192;-80
2022/11/07 09:35:15;;;;;;;13.15;1.98;;;;;14.60;100513.00;;;;10436663;28;20206;-80
2022/11/07 09:40:37;;;;;;;9.00;2.40;;;;;14.70;100515.00;;;;10426667;28;20194;-80
2022/11/07 09:45:57;;;;;;;6.85;3.03;;;;;14.80;100517.00;;;;10472122;28;20191;-80
2022/11/07 09:50:59;;;;;;;12.93;2.90;;;;;15.00;100530.00;;;;10426377;28;20718;-80
2022/11/07 09:56:04;;;;;;;10.52;2.95;;;;;15.00;100535.00;;;;10418581;28;20210;-80
2022/11/07 10:01:12;;;;;;;11.18;2.70;;;;;15.10;100543.00;;;;10448739;28;20185;-80
2022/11/07 10:06:20;;;;;;;7.75;2.08;;;;;15.50;100540.00;;;;10407896;28;20221;-80
2022/11/07 10:11:32;;;;;;;11.70;2.13;;;;;16.00;100555.00;;;;10438720;28;20235;-80
2022/11/07 10:16:52;;;;;;;10.88;1.95;;;;;15.90;100552.00;;;;10423233;28;20638;-80
2022/11/07 10:22:12;;;;;;;9.63;2.03;;;;;15.70;100566.00;;;;10420125;28;20233;-81
2022/11/07 10:27:14;;;;;;;10.82;2.53;;;;;15.70;100561.00;;;;10438949;28;20204;-79
2022/11/07 10:32:42;;;;;;;12.40;2.58;;;;;15.60;100568.00;;;;10469566;28;20935;-79
2022/11/07 10:37:55;;;;;;;10.38;2.38;;;;;15.70;100569.00;;;;10449728;28;20194;-80
2022/11/07 10:42:57;;;;;;;8.50;1.98;;;;;15.90;100572.00;;;;10436747;28;20227;-81
2022/11/07 10:48:02;;;;;;;14.15;2.50;;;;;16.10;100568.00;;;;10396502;28;20199;-81
2022/11/07 10:53:08;;;;;;;8.65;2.22;;;;;16.30;100557.00;;;;10439548;28;20205;-81
2022/11/07 10:58:34;;;;;;;7.90;2.30;;;;;16.40;100560.00;;;;10427120;28;20581;-80
2022/11/07 11:03:42;;;;;;;7.60;2.25;;;;;16.40;100555.00;;;;10423023;28;20922;-81
2022/11/07 11:08:50;;;;;;;5.85;1.98;;;;;16.30;100562.00;;;;10462187;28;20216;-82
2022/11/07 11:14:13;;;;;;;7.78;2.60;;;;;16.50;100567.00;;;;10418370;28;20206;-80
2022/11/07 11:19:20;;;;;;;7.35;1.90;;;;;16.80;100566.00;;;;10422887;28;20189;-80
2022/11/07 11:24:36;;;;;;;6.85;1.67;;;;;16.90;100563.00;;;;10413737;28;20564;-80
2022/11/07 11:30:06;;;;;;;8.98;2.72;;;;;16.70;100571.00;;;;10462216;28;20197;-80
2022/11/07 11:35:31;;;;;;;9.82;2.17;;;;;16.30;100563.00;;;;10424083;28;20206;-80
2022/11/07 11:40:39;;;;;;;6.60;2.67;;;;;15.90;100565.00;;;;10471753;28;20181;-80
2022/11/07 11:45:47;;;;;;;11.43;2.40;;;;;15.90;100552.00;;;;10446740;28;20182;-79
2022/11/07 11:50:59;;;;;;;10.40;2.70;;;;;15.90;100555.00;;;;10462697;28;20284;-79
2022/11/07 11:56:07;;;;;;;6.90;1.83;;;;;16.00;100561.00;;;;10437259;28;20204;-80
2022/11/07 12:01:31;;;;;;;9.45;2.40;;;;;16.10;100557.00;;;;10450778;28;20264;-80
2022/11/07 12:06:41;;;;;;;15.73;2.53;;;;;16.70;100542.00;;;;10464423;28;20210;-79
2022/11/07 12:12:03;;;;;;;11.07;2.55;;;;;16.90;100551.00;;;;10438525;28;20198;-80
2022/11/07 12:17:15;;;;;;;4.57;2.50;;;;;17.00;100554.00;;;;10439311;28;20212;-79
2022/11/07 12:22:48;;;;;;;8.25;1.83;;;;;16.80;100558.00;;;;10442194;28;20218;-79
2022/11/07 12:27:56;;;;;;;8.68;1.88;;;;;16.60;100554.00;;;;10436958;28;20255;-79
2022/11/07 12:33:13;;;;;;;5.38;1.92;;;;;16.80;100556.00;;;;10439879;28;20206;-79
2022/11/07 12:38:47;;;;;;;10.55;2.47;;;;;16.20;100551.00;;;;10444644;28;20192;-80
2022/11/07 12:44:28;;;;;;;7.75;2.38;;;;;15.90;100548.00;;;;10438917;28;20190;-79
2022/11/07 12:49:37;;;;;;;5.93;2.00;;;;;16.30;100535.00;;;;10403735;28;20228;-78
2022/11/07 12:54:55;;;;;;;10.57;2.13;;;;;17.30;100526.00;;;;10470818;28;20239;-78
2022/11/07 13:00:04;;;;;;;7.20;2.15;;;;;17.70;100539.00;;;;10461307;28;20185;-79
2022/11/07 13:05:18;;;;;;;9.55;1.95;;;;;17.90;100528.00;;;;10444870;28;20217;-78
2022/11/07 13:10:32;;;;;;;8.57;1.95;;;;;18.20;100534.00;;;;10430996;28;20205;-79
2022/11/07 13:15:37;;;;;;;6.15;1.70;;;;;18.40;100522.00;;;;10436922;28;20211;-79
2022/11/07 13:21:01;;;;;;;8.18;2.13;;;;;18.50;100526.00;;;;10443009;28;20272;-79
2022/11/07 13:26:05;;;;;;;14.02;2.28;;;;;18.50;100526.00;;;;10434823;28;20555;-79
2022/11/07 13:31:32;;;;;;;8.25;2.30;;;;;18.00;100527.00;;;;10416977;28;20641;-80
2022/11/07 13:36:34;;;;;;;7.60;1.95;;;;;17.90;100527.00;;;;10435868;28;20834;-80
2022/11/07 13:41:36;;;;;;;8.82;2.22;;;;;17.80;100541.00;;;;10476871;28;20217;-80
2022/11/07 13:46:48;;;;;;;5.88;1.98;;;;;17.30;100531.00;;;;10475507;28;20194;-80
2022/11/07 13:51:51;;;;;;;8.98;1.92;;;;;16.80;100529.00;;;;10474094;28;20250;-79
2022/11/07 13:57:12;;;;;;;5.38;1.60;;;;;16.50;100527.00;;;;10444854;28;20198;-79
2022/11/07 14:02:22;;;;;;;7.43;2.42;;;;;16.50;100518.00;;;;10436774;28;20201;-78
2022/11/07 14:07:25;;;;;;;4.53;1.60;;;;;16.50;100512.00;;;;10441249;28;20220;-79
2022/11/07 14:12:28;;;;;;;7.68;2.58;;;;;16.30;100509.00;;;;10443007;28;20197;-80
2022/11/07 14:17:33;;;;;;;7.53;1.83;;;;;16.30;100521.00;;;;10436726;28;20194;-79
2022/11/07 14:22:36;;;;;;;7.50;2.53;;;;;16.50;100513.00;;;;10434665;28;20212;-79
2022/11/07 14:27:44;;;;;;;9.18;2.78;;;;;16.40;100510.00;;;;10452417;28;20201;-79
2022/11/07 14:32:55;;;;;;;8.98;2.35;;;;;16.10;100508.00;;;;10448894;28;20299;-80
2022/11/07 14:38:06;;;;;;;8.60;2.35;;;;;15.80;100515.00;;;;10446677;28;20201;-79
2022/11/07 14:43:13;;;;;;;7.07;2.30;;;;;15.80;100516.00;;;;10422436;28;20290;-79
2022/11/07 14:48:17;;;;;;;8.85;2.22;;;;;15.80;100513.00;;;;10435817;28;20197;-79
2022/11/07 14:53:49;;;;;;;9.02;2.65;;;;;15.70;100514.00;;;;10460851;28;20234;-79
2022/11/07 14:58:51;;;;;;;7.28;2.22;;;;;15.70;100522.00;;;;10425892;28;20664;-79
2022/11/07 15:03:59;;;;;;;8.23;2.60;;;;;15.60;100512.00;;;;10448616;28;20220;-79
2022/11/07 15:09:05;;;;;;;8.45;1.98;;;;;15.40;100511.00;;;;10429486;28;20287;-79
2022/11/07 15:14:31;;;;;;;13.57;2.38;;;;;15.40;100517.00;;;;10428776;28;20695;-80
2022/11/07 15:19:34;;;;;;;7.05;1.83;;;;;15.30;100517.00;;;;10415770;28;20203;-79
2022/11/07 15:24:45;;;;;;;7.53;1.83;;;;;15.10;100513.00;;;;10431074;28;20198;-79
2022/11/07 15:29:55;;;;;;;9.82;2.00;;;;;15.00;100508.00;;;;10461612;28;20189;-79
2022/11/07 15:34:57;;;;;;;7.85;2.40;;;;;15.00;100503.00;;;;10457676;28;20240;-79
2022/11/07 15:40:20;;;;;;;9.23;2.63;;;;;15.00;100510.00;;;;10440600;28;20196;-79
2022/11/07 15:45:22;;;;;;;9.05;1.80;;;;;14.90;100506.00;;;;10430930;28;20185;-79
2022/11/07 15:50:24;;;;;;;8.00;2.05;;;;;14.90;100508.00;;;;10437138;28;20556;-79
2022/11/07 15:55:26;;;;;;;7.75;2.08;;;;;14.80;100505.00;;;;10449874;28;20248;-79
2022/11/07 16:00:28;;;;;;;5.18;2.10;;;;;14.70;100514.00;;;;10450726;28;20611;-79
2022/11/07 16:05:30;;;;;;;5.30;1.58;;;;;14.50;100522.00;;;;10427368;28;20217;-78
2022/11/07 16:10:32;;;;;;;11.10;2.30;;;;;14.40;100509.00;;;;10426056;28;20206;-78
2022/11/07 16:15:34;;;;;;;9.43;1.80;;;;;14.50;100514.00;;;;10460362;28;20220;-79
2022/11/07 16:20:36;;;;;;;4.40;1.80;;;;;14.50;100512.00;;;;10440576;28;20232;-79
2022/11/07 16:25:39;;;;;;;10.77;2.28;;;;;14.50;100520.00;;;;10434059;28;20193;-79
2022/11/07 16:30:41;;;;;;;6.82;1.90;;;;;14.40;100529.00;;;;10476048;28;20305;-79
2022/11/07 16:35:43;;;;;;;4.85;1.25;;;;;14.40;100532.00;;;;10450525;28;20201;-79
2022/11/07 16:40:46;;;;;;;7.68;2.03;;;;;14.40;100530.00;;;;10445424;28;20255;-80
2022/11/07 16:45:52;;;;;;;6.07;2.00;;;;;14.40;100535.00;;;;10446705;28;20243;-79
2022/11/07 16:50:55;;;;;;;5.90;1.70;;;;;14.40;100539.00;;;;10429301;28;20207;-80
2022/11/07 16:56:02;;;;;;;7.97;2.17;;;;;14.30;100536.00;;;;10434118;28;20201;-79
2022/11/07 17:01:04;;;;;;;8.55;1.98;;;;;14.30;100533.00;;;;10456405;28;20197;-79
2022/11/07 17:06:16;;;;;;;7.82;2.00;;;;;14.20;100539.00;;;;10412457;28;20210;-79
2022/11/07 17:11:18;;;;;;;10.05;2.22;;;;;14.10;100542.00;;;;10419775;28;20209;-80
2022/11/07 17:16:23;;;;;;;9.95;2.22;;;;;14.00;100528.00;;;;10421650;28;20202;-79
2022/11/07 17:21:29;;;;;;;11.70;2.45;;;;;14.00;100533.00;;;;10405774;28;20194;-80
2022/11/07 17:26:37;;;;;;;10.73;3.00;;;;;13.90;100520.00;;;;10460731;28;20205;-79
2022/11/07 17:31:40;;;;;;;11.32;2.80;;;;;13.80;100527.00;;;;10460701;28;20265;-80
2022/11/07 17:36:46;;;;;;;9.80;2.37;;;;;13.80;100534.00;;;;10438572;28;20213;-79
2022/11/07 17:41:49;;;;;;;7.60;1.83;;;;;13.70;100532.00;;;;10460253;28;20186;-80
2022/11/07 17:46:52;;;;;;;12.83;3.00;;;;;13.80;100526.00;;;;10445205;28;20198;-79
2022/11/07 17:51:54;;;;;;;11.90;2.60;;;;;13.80;100527.00;;;;10461798;28;20182;-79
2022/11/07 17:56:56;;;;;;;8.63;2.27;;;;;13.80;100535.00;;;;10408564;28;20264;-80
2022/11/07 18:01:57;;;;;;;5.20;2.03;;;;;13.90;100542.00;;;;10419513;28;20259;-79
2022/11/07 18:07:00;;;;;;;7.63;2.35;;;;;13.90;100526.00;;;;10419595;28;20220;-80
2022/11/07 18:12:02;;;;;;;9.40;2.08;;;;;13.80;100534.00;;;;10423347;28;20202;-80
2022/11/07 18:17:04;;;;;;;8.30;2.27;;;;;13.80;100529.00;;;;10442993;28;20213;-80
2022/11/07 18:22:06;;;;;;;10.47;2.87;;;;;13.80;100524.00;;;;10442964;28;20205;-79
2022/11/07 18:27:08;;;;;;;10.77;2.80;;;;;13.70;100527.00;;;;10443219;28;20590;-80
2022/11/07 18:32:11;;;;;;;5.28;1.70;;;;;13.70;100532.00;;;;10443412;28;20205;-80
2022/11/07 18:37:13;;;;;;;6.63;2.00;;;;;13.70;100533.00;;;;10425565;28;20211;-79
2022/11/07 18:42:15;;;;;;;12.80;3.10;;;;;13.60;100530.00;;;;10409629;28;20229;-79
2022/11/07 18:47:17;;;;;;;11.10;3.23;;;;;13.60;100533.00;;;;10459454;28;20185;-80
2022/11/07 18:52:19;;;;;;;10.38;2.80;;;;;13.60;100529.00;;;;10465787;28;20239;-79
2022/11/07 18:57:21;;;;;;;13.93;2.60;;;;;13.60;100538.00;;;;10428352;28;20264;-79
2022/11/07 19:02:22;;;;;;;10.20;2.70;;;;;13.60;100535.00;;;;10466568;28;20702;-80
2022/11/07 19:07:24;;;;;;;9.63;3.17;;;;;13.50;100524.00;;;;10419088;28;20256;-79
2022/11/07 19:12:28;;;;;;;8.97;2.30;;;;;13.40;100532.00;;;;10450032;28;20231;-80
2022/11/07 19:17:30;;;;;;;7.55;2.92;;;;;13.40;100534.00;;;;10408439;28;20202;-79
2022/11/07 19:22:32;;;;;;;8.90;2.10;;;;;13.40;100537.00;;;;10444140;28;20213;-80
2022/11/07 19:27:34;;;;;;;6.63;2.13;;;;;13.30;100532.00;;;;10466495;28;20219;-79
2022/11/07 19:32:36;;;;;;;8.50;2.07;;;;;13.30;100528.00;;;;10449024;28;20185;-79
2022/11/07 19:37:38;;;;;;;8.97;2.20;;;;;13.30;100525.00;;;;10421070;28;20541;-79
2022/11/07 19:42:40;;;;;;;8.93;2.70;;;;;13.40;100546.00;;;;10465316;28;20203;-79
2022/11/07 19:47:42;;;;;;;6.82;2.10;;;;;13.40;100534.00;;;;10432165;28;20208;-80
2022/11/07 19:52:43;;;;;;;5.17;2.30;;;;;13.50;100530.00;;;;10481283;28;20197;-79
2022/11/07 19:57:48;;;;;;;11.73;2.30;;;;;13.50;100529.00;;;;10448538;28;20603;-80
2022/11/07 20:02:51;;;;;;;6.90;2.10;;;;;13.50;100534.00;;;;10479544;28;20193;-81
2022/11/07 20:07:53;;;;;;;6.73;1.93;;;;;13.50;100535.00;;;;10408778;28;20685;-79
2022/11/07 20:13:02;;;;;;;7.47;3.30;;;;;13.50;100533.00;;;;10423548;28;20791;-80
2022/11/07 20:18:04;;;;;;;5.93;1.77;;;;;13.50;100532.00;;;;10422302;28;20676;-79
2022/11/07 20:23:06;;;;;;;7.60;2.67;;;;;13.30;100541.00;;;;10427663;28;20690;-79
2022/11/07 20:28:08;;;;;;;5.70;2.27;;;;;13.30;100543.00;;;;10430460;28;20190;-79
2022/11/07 20:33:10;;;;;;;8.23;2.00;;;;;13.20;100540.00;;;;10430772;28;20200;-79
2022/11/07 20:38:11;;;;;;;7.43;2.07;;;;;13.10;100546.00;;;;10446480;28;20217;-80
2022/11/07 20:43:13;;;;;;;6.87;2.10;;;;;13.00;100540.00;;;;10447345;28;20197;-79
2022/11/07 20:48:17;;;;;;;5.80;2.00;;;;;12.90;100537.00;;;;10445964;28;20185;-79
2022/11/07 20:53:19;;;;;;;9.07;2.13;;;;;12.80;100527.00;;;;10478718;28;20205;-79
2022/11/07 20:58:21;;;;;;;9.73;2.27;;;;;12.70;100540.00;;;;10428962;28;20205;-79
2022/11/07 21:03:23;;;;;;;7.20;1.67;;;;;12.70;100539.00;;;;10459565;28;20228;-79
2022/11/07 21:08:25;;;;;;;7.17;2.40;;;;;12.60;100533.00;;;;10421501;28;20542;-79
2022/11/07 21:13:27;;;;;;;8.20;1.83;;;;;12.60;100534.00;;;;10405561;28;20661;-79
2022/11/07 21:18:29;;;;;;;7.17;2.40;;;;;12.60;100533.00;;;;10465370;28;20263;-79
2022/11/07 21:23:31;;;;;;;7.13;1.77;;;;;12.50;100536.00;;;;10444814;28;20575;-79
2022/11/07 21:28:33;;;;;;;6.37;1.97;;;;;12.50;100523.00;;;;10445634;28;20190;-79
2022/11/07 21:33:35;;;;;;;9.03;2.23;;;;;12.50;100527.00;;;;10440487;28;20352;-79
2022/11/07 21:38:37;;;;;;;8.60;2.10;;;;;12.40;100524.00;;;;10403043;28;20187;-79
2022/11/07 21:43:40;;;;;;;10.77;2.00;;;;;12.40;100515.00;;;;10403236;28;20195;-79
2022/11/07 21:48:42;;;;;;;6.73;1.83;;;;;12.30;100519.00;;;;10417582;28;20678;-79
2022/11/07 21:53:45;;;;;;;4.27;1.70;;;;;12.30;100504.00;;;;10443946;28;20185;-79
2022/11/07 21:58:56;;;;;;;4.60;2.13;;;;;12.30;100489.00;;;;10419214;28;20202;-79
2022/11/07 22:03:58;;;;;;;8.03;2.73;;;;;12.20;100489.00;;;;10459607;28;20221;-79
2022/11/07 22:09:10;;;;;;;6.50;2.13;;;;;12.20;100479.00;;;;10429261;28;20209;-79
2022/11/07 22:14:18;;;;;;;4.20;1.73;;;;;12.20;100476.00;;;;10444440;28;20225;-79
2022/11/07 22:19:20;;;;;;;7.23;1.83;;;;;12.20;100479.00;;;;10428522;28;20204;-79
2022/11/07 22:24:24;;;;;;;6.30;2.03;;;;;12.20;100476.00;;;;10460049;28;20205;-79
2022/11/07 22:29:27;;;;;;;4.27;2.20;;;;;12.20;100468.00;;;;10468398;28;20186;-79
2022/11/07 22:34:29;;;;;;;8.03;2.33;;;;;12.10;100460.00;;;;10434873;28;20221;-79
2022/11/07 22:39:31;;;;;;;6.57;1.80;;;;;12.00;100454.00;;;;10434819;28;20660;-79
2022/11/07 22:44:33;;;;;;;5.00;2.00;;;;;12.00;100458.00;;;;10451389;28;20190;-79
2022/11/07 22:49:35;;;;;;;4.63;1.70;;;;;12.00;100456.00;;;;10484004;28;20201;-79
2022/11/07 22:54:37;;;;;;;8.30;2.00;;;;;12.00;100452.00;;;;10450396;28;20674;-79
2022/11/07 22:59:39;;;;;;;9.17;2.20;;;;;11.90;100453.00;;;;10451109;28;20228;-79
2022/11/07 23:04:41;;;;;;;5.20;1.80;;;;;11.90;100450.00;;;;10412282;28;20218;-79
2022/11/07 23:09:43;;;;;;;4.97;1.70;;;;;11.90;100444.00;;;;10436149;28;20198;-80
2022/11/07 23:14:45;;;;;;;4.70;1.70;;;;;11.80;100430.00;;;;10449082;28;20255;-79
2022/11/07 23:19:52;;;;;;;5.40;1.77;;;;;11.80;100427.00;;;;10465859;28;20671;-79
2022/11/07 23:24:54;;;;;;;11.93;2.33;;;;;11.70;100436.00;;;;10448989;28;20681;-79
2022/11/07 23:29:56;;;;;;;6.40;1.60;;;;;11.60;100426.00;;;;10448944;28;20533;-79
2022/11/07 23:34:58;;;;;;;4.80;1.37;;;;;11.60;100432.00;;;;10432516;28;20569;-79
2022/11/07 23:40:00;;;;;;;6.80;1.80;;;;;11.60;100416.00;;;;10441002;28;20244;-79
2022/11/07 23:55:43;;;;;;;7.50;2.00;;;;;11.80;100395.00;;;;10447139;28;20222;-79
